Platzwetter Flugplatz Wels

Flugwetter Linz LOWL

[Quelle: ADDS]
METAR
LOWL 031650Z AUTO 17008KT 120V280 9999 //////CB FEW050 BKN070 21/14 Q1013 TEMPO TSRA =
LOWL 031115Z 0312/0412 06006KT 9999 FEW050 TX23/0313Z TN15/0404Z TEMPO 0313/0319 26010KT 9999 FEW040CB SCT060 PROB30 TEMPO 0315/0319 32015KT TSRA BECMG 0317/0320 28006KT TEMPO 0322/0404 -RA
TAF
LOWL 031115Z 0312/0412 06006KT 9999 FEW050 TX23/0313Z TN15/0404Z TEMPO 0313/0319 26010KT 9999 FEW040CB SCT060 PROB30 TEMPO 0315/0319 32015KT TSRA BECMG 0317/0320 28006KT TEMPO 0322/0404 -RA =

Flugwetter Salzburg LOWS

[Quelle: ADDS]
METAR
LOWS 031650Z 20003KT 160V260 9999 -RA FEW040 FEW050CB SCT070 BKN090 18/14 Q1014 RETS TEMPO 32015G25KT TSRA =
LOWS 031115Z 0312/0412 01007KT 9999 FEW050 BKN100 TX22/0313Z TN14/0405Z TEMPO 0312/0324 SHRA SCT040CB BKN060 PROB30 TEMPO 0314/0320 32015G25KT TSRA BECMG 0318/0320 15006KT BECMG 0408/0410 04007KT
TAF
LOWS 031115Z 0312/0412 01007KT 9999 FEW050 BKN100 TX22/0313Z TN14/0405Z TEMPO 0312/0324 SHRA SCT040CB BKN060 PROB30 TEMPO 0314/0320 32015G25KT TSRA BECMG 0318/0320 15006KT BECMG 0408/0410 04007KT =

Wind - Verlauf

Windrichtung - Verlauf

Temperatur - Verlauf

Relative Luftfeuchtigkeit - Verlauf

Luftdruck - Verlauf

Wir benutzen Cookies

Wir nutzen Cookies auf unserer Website. Einige von ihnen sind essenziell für den Betrieb der Seite, während andere uns helfen, diese Website und die Nutzererfahrung zu verbessern (Tracking Cookies). Sie können selbst entscheiden, ob Sie die Cookies zulassen möchten. Bitte beachten Sie, dass bei einer Ablehnung womöglich nicht mehr alle Funktionalitäten der Seite zur Verfügung stehen.